sensor_id;sensor_type;location;lat;lon;timestamp;pressure;altitude;pressure_sealevel;temperature;humidity
19600;BME280;9947;57.722;12.012;2023-06-10T00:00:03;102021.91;;;13.36;44.38
19600;BME280;9947;57.722;12.012;2023-06-10T00:02:32;102014.97;;;13.32;44.23
19600;BME280;9947;57.722;12.012;2023-06-10T00:05:03;102020.69;;;13.27;44.10
19600;BME280;9947;57.722;12.012;2023-06-10T00:07:35;102019.03;;;13.24;44.28
19600;BME280;9947;57.722;12.012;2023-06-10T00:10:04;102017.63;;;13.19;43.97
19600;BME280;9947;57.722;12.012;2023-06-10T00:12:32;102021.59;;;13.13;44.25
19600;BME280;9947;57.722;12.012;2023-06-10T00:15:03;102016.25;;;13.12;44.61
19600;BME280;9947;57.722;12.012;2023-06-10T00:17:32;102017.75;;;13.03;44.63
19600;BME280;9947;57.722;12.012;2023-06-10T00:20:01;102030.75;;;12.98;44.73
19600;BME280;9947;57.722;12.012;2023-06-10T00:22:30;102027.47;;;12.93;44.83
19600;BME280;9947;57.722;12.012;2023-06-10T00:24:59;102028.66;;;12.89;44.56
19600;BME280;9947;57.722;12.012;2023-06-10T00:27:29;102025.56;;;12.81;44.86
19600;BME280;9947;57.722;12.012;2023-06-10T00:30:02;102030.91;;;12.82;44.51
19600;BME280;9947;57.722;12.012;2023-06-10T00:32:32;102033.06;;;12.77;44.62
19600;BME280;9947;57.722;12.012;2023-06-10T00:34:59;102031.31;;;12.76;44.20
19600;BME280;9947;57.722;12.012;2023-06-10T00:37:27;102025.88;;;12.76;44.13
19600;BME280;9947;57.722;12.012;2023-06-10T00:39:56;102030.16;;;12.66;44.96
19600;BME280;9947;57.722;12.012;2023-06-10T00:42:26;102036.19;;;12.57;45.02
19600;BME280;9947;57.722;12.012;2023-06-10T00:44:54;102033.78;;;12.52;44.94
19600;BME280;9947;57.722;12.012;2023-06-10T00:47:21;102032.03;;;12.51;44.69
19600;BME280;9947;57.722;12.012;2023-06-10T00:49:51;102031.31;;;12.48;44.76
19600;BME280;9947;57.722;12.012;2023-06-10T00:52:20;102037.91;;;12.44;44.48
19600;BME280;9947;57.722;12.012;2023-06-10T00:54:51;102042.69;;;12.40;44.66
19600;BME280;9947;57.722;12.012;2023-06-10T00:57:20;102049.84;;;12.41;44.69
19600;BME280;9947;57.722;12.012;2023-06-10T00:59:49;102049.47;;;12.33;44.96
19600;BME280;9947;57.722;12.012;2023-06-10T01:02:16;102056.41;;;12.23;45.59
19600;BME280;9947;57.722;12.012;2023-06-10T01:04:44;102058.34;;;12.21;45.23
19600;BME280;9947;57.722;12.012;2023-06-10T01:07:18;102055.06;;;12.16;44.89
19600;BME280;9947;57.722;12.012;2023-06-10T01:09:54;102056.63;;;12.06;45.36
19600;BME280;9947;57.722;12.012;2023-06-10T01:12:30;102053.50;;;11.97;45.89
19600;BME280;9947;57.722;12.012;2023-06-10T01:15:01;102064.34;;;11.97;46.00
19600;BME280;9947;57.722;12.012;2023-06-10T01:17:30;102062.00;;;11.91;45.76
19600;BME280;9947;57.722;12.012;2023-06-10T01:19:59;102061.13;;;11.91;46.05
19600;BME280;9947;57.722;12.012;2023-06-10T01:22:38;102059.66;;;11.85;46.37
19600;BME280;9947;57.722;12.012;2023-06-10T01:25:06;102067.47;;;11.76;46.56
19600;BME280;9947;57.722;12.012;2023-06-10T01:27:38;102066.78;;;11.72;47.31
19600;BME280;9947;57.722;12.012;2023-06-10T01:30:14;102067.50;;;11.60;47.20
19600;BME280;9947;57.722;12.012;2023-06-10T01:32:45;102074.94;;;11.56;47.34
19600;BME280;9947;57.722;12.012;2023-06-10T01:35:14;102078.34;;;11.60;47.31
19600;BME280;9947;57.722;12.012;2023-06-10T01:37:48;102076.47;;;11.46;47.91
19600;BME280;9947;57.722;12.012;2023-06-10T01:40:17;102081.16;;;11.42;48.42
19600;BME280;9947;57.722;12.012;2023-06-10T01:42:45;102084.66;;;11.44;48.11
19600;BME280;9947;57.722;12.012;2023-06-10T01:45:14;102084.03;;;11.55;48.87
19600;BME280;9947;57.722;12.012;2023-06-10T01:47:44;102079.09;;;11.62;48.91
19600;BME280;9947;57.722;12.012;2023-06-10T01:50:16;102082.97;;;11.58;48.38
19600;BME280;9947;57.722;12.012;2023-06-10T01:52:47;102077.78;;;11.69;48.89
19600;BME280;9947;57.722;12.012;2023-06-10T01:55:18;102086.44;;;11.76;49.09
19600;BME280;9947;57.722;12.012;2023-06-10T01:57:56;102086.63;;;11.72;48.80
19600;BME280;9947;57.722;12.012;2023-06-10T02:00:24;102088.88;;;11.64;48.47
19600;BME280;9947;57.722;12.012;2023-06-10T02:02:56;102093.03;;;11.40;49.24
19600;BME280;9947;57.722;12.012;2023-06-10T02:05:26;102096.44;;;11.43;49.43
19600;BME280;9947;57.722;12.012;2023-06-10T02:08:00;102101.81;;;11.29;49.88
19600;BME280;9947;57.722;12.012;2023-06-10T02:10:29;102092.81;;;11.29;50.44
19600;BME280;9947;57.722;12.012;2023-06-10T02:13:01;102106.06;;;11.33;50.58
19600;BME280;9947;57.722;12.012;2023-06-10T02:15:30;102102.69;;;11.14;50.30
19600;BME280;9947;57.722;12.012;2023-06-10T02:17:58;102092.13;;;10.94;51.07
19600;BME280;9947;57.722;12.012;2023-06-10T02:20:35;102104.16;;;10.88;51.66
19600;BME280;9947;57.722;12.012;2023-06-10T02:23:05;102105.56;;;10.79;52.05
19600;BME280;9947;57.722;12.012;2023-06-10T02:25:32;102104.69;;;10.79;51.31
19600;BME280;9947;57.722;12.012;2023-06-10T02:27:59;102105.03;;;10.73;51.73
19600;BME280;9947;57.722;12.012;2023-06-10T02:30:29;102099.78;;;10.70;52.59
19600;BME280;9947;57.722;12.012;2023-06-10T02:33:00;102101.78;;;10.66;52.52
19600;BME280;9947;57.722;12.012;2023-06-10T02:35:32;102097.31;;;10.65;52.25
19600;BME280;9947;57.722;12.012;2023-06-10T02:38:00;102100.91;;;10.66;52.85
19600;BME280;9947;57.722;12.012;2023-06-10T02:40:32;102105.53;;;10.64;52.74
19600;BME280;9947;57.722;12.012;2023-06-10T02:43:04;102112.69;;;10.65;53.16
19600;BME280;9947;57.722;12.012;2023-06-10T02:45:30;102116.34;;;10.64;53.78
19600;BME280;9947;57.722;12.012;2023-06-10T02:48:01;102112.19;;;10.74;53.45
19600;BME280;9947;57.722;12.012;2023-06-10T02:50:28;102109.47;;;10.74;53.30
19600;BME280;9947;57.722;12.012;2023-06-10T02:52:55;102115.16;;;10.69;53.46
19600;BME280;9947;57.722;12.012;2023-06-10T02:55:23;102114.28;;;10.69;53.46
19600;BME280;9947;57.722;12.012;2023-06-10T02:57:53;102117.13;;;10.66;54.72
19600;BME280;9947;57.722;12.012;2023-06-10T03:00:25;102117.22;;;10.64;54.91
19600;BME280;9947;57.722;12.012;2023-06-10T03:02:53;102113.97;;;10.58;55.17
19600;BME280;9947;57.722;12.012;2023-06-10T03:05:23;102115.47;;;10.63;54.89
19600;BME280;9947;57.722;12.012;2023-06-10T03:07:51;102121.56;;;10.67;54.68
19600;BME280;9947;57.722;12.012;2023-06-10T03:10:19;102122.03;;;10.75;54.20
19600;BME280;9947;57.722;12.012;2023-06-10T03:12:47;102123.09;;;10.72;55.68
19600;BME280;9947;57.722;12.012;2023-06-10T03:15:17;102120.31;;;10.74;56.25
19600;BME280;9947;57.722;12.012;2023-06-10T03:17:47;102120.47;;;10.71;56.59
19600;BME280;9947;57.722;12.012;2023-06-10T03:20:16;102126.41;;;10.77;57.72
19600;BME280;9947;57.722;12.012;2023-06-10T03:22:51;102130.00;;;11.09;58.70
19600;BME280;9947;57.722;12.012;2023-06-10T03:25:24;102132.91;;;11.22;57.83
19600;BME280;9947;57.722;12.012;2023-06-10T03:27:52;102134.72;;;11.37;57.43
19600;BME280;9947;57.722;12.012;2023-06-10T03:30:23;102133.47;;;11.43;57.30
19600;BME280;9947;57.722;12.012;2023-06-10T03:32:54;102135.22;;;11.60;57.57
19600;BME280;9947;57.722;12.012;2023-06-10T03:35:21;102130.78;;;11.43;55.77
19600;BME280;9947;57.722;12.012;2023-06-10T03:37:50;102129.78;;;11.76;55.59
19600;BME280;9947;57.722;12.012;2023-06-10T03:40:25;102125.19;;;12.64;51.32
19600;BME280;9947;57.722;12.012;2023-06-10T03:43:00;102129.84;;;14.38;48.12
19600;BME280;9947;57.722;12.012;2023-06-10T03:45:33;102134.53;;;15.24;44.43
19600;BME280;9947;57.722;12.012;2023-06-10T03:48:03;102131.66;;;14.25;46.35
19600;BME280;9947;57.722;12.012;2023-06-10T03:50:34;102141.06;;;13.27;48.53
19600;BME280;9947;57.722;12.012;2023-06-10T03:53:08;102142.63;;;13.03;49.75
19600;BME280;9947;57.722;12.012;2023-06-10T03:55:36;102142.38;;;12.51;51.29
19600;BME280;9947;57.722;12.012;2023-06-10T03:58:05;102140.16;;;11.99;53.33
19600;BME280;9947;57.722;12.012;2023-06-10T04:00:34;102148.84;;;11.74;53.99
19600;BME280;9947;57.722;12.012;2023-06-10T04:03:07;102142.03;;;11.97;53.71
19600;BME280;9947;57.722;12.012;2023-06-10T04:05:41;102138.16;;;11.87;54.31
19600;BME280;9947;57.722;12.012;2023-06-10T04:08:10;102146.44;;;11.99;54.80
19600;BME280;9947;57.722;12.012;2023-06-10T04:10:51;102139.59;;;11.78;56.65
19600;BME280;9947;57.722;12.012;2023-06-10T04:13:28;102139.03;;;11.87;56.23
19600;BME280;9947;57.722;12.012;2023-06-10T04:16:15;102144.53;;;11.70;57.20
19600;BME280;9947;57.722;12.012;2023-06-10T04:18:50;102152.06;;;11.65;57.09
19600;BME280;9947;57.722;12.012;2023-06-10T04:21:22;102152.50;;;11.73;57.53
19600;BME280;9947;57.722;12.012;2023-06-10T04:24:01;102149.38;;;11.81;57.44
19600;BME280;9947;57.722;12.012;2023-06-10T04:26:30;102152.56;;;11.87;57.63
19600;BME280;9947;57.722;12.012;2023-06-10T04:28:58;102155.84;;;12.22;56.18
19600;BME280;9947;57.722;12.012;2023-06-10T04:31:30;102153.47;;;12.75;54.25
19600;BME280;9947;57.722;12.012;2023-06-10T04:33:58;102162.28;;;13.89;51.38
19600;BME280;9947;57.722;12.012;2023-06-10T04:36:28;102156.84;;;15.41;47.32
19600;BME280;9947;57.722;12.012;2023-06-10T04:38:55;102156.63;;;16.39;44.09
19600;BME280;9947;57.722;12.012;2023-06-10T04:41:22;102157.72;;;17.81;41.21
19600;BME280;9947;57.722;12.012;2023-06-10T04:43:49;102155.47;;;17.10;42.65
19600;BME280;9947;57.722;12.012;2023-06-10T04:46:19;102152.22;;;16.60;42.54
19600;BME280;9947;57.722;12.012;2023-06-10T04:48:48;102152.00;;;17.19;41.55
19600;BME280;9947;57.722;12.012;2023-06-10T04:51:17;102151.88;;;16.87;42.73
19600;BME280;9947;57.722;12.012;2023-06-10T04:53:47;102153.69;;;17.42;40.82
19600;BME280;9947;57.722;12.012;2023-06-10T04:56:14;102161.13;;;17.74;40.26
19600;BME280;9947;57.722;12.012;2023-06-10T04:58:43;102163.19;;;17.27;40.97
19600;BME280;9947;57.722;12.012;2023-06-10T05:01:12;102158.22;;;17.64;40.28
19600;BME280;9947;57.722;12.012;2023-06-10T05:03:42;102165.56;;;18.90;38.18
19600;BME280;9947;57.722;12.012;2023-06-10T05:06:13;102161.13;;;18.68;38.71
19600;BME280;9947;57.722;12.012;2023-06-10T05:08:42;102158.69;;;18.12;39.13
19600;BME280;9947;57.722;12.012;2023-06-10T05:11:11;102162.81;;;18.90;37.54
19600;BME280;9947;57.722;12.012;2023-06-10T05:13:42;102160.16;;;18.16;38.46
19600;BME280;9947;57.722;12.012;2023-06-10T05:16:10;102162.25;;;18.24;38.94
19600;BME280;9947;57.722;12.012;2023-06-10T05:18:37;102156.56;;;18.37;38.46
19600;BME280;9947;57.722;12.012;2023-06-10T05:21:05;102159.72;;;18.32;38.31
19600;BME280;9947;57.722;12.012;2023-06-10T05:23:39;102170.31;;;18.05;38.99
19600;BME280;9947;57.722;12.012;2023-06-10T05:26:07;102167.16;;;17.23;40.07
19600;BME280;9947;57.722;12.012;2023-06-10T05:28:36;102164.34;;;17.56;39.53
19600;BME280;9947;57.722;12.012;2023-06-10T05:31:07;102160.25;;;18.68;38.48
19600;BME280;9947;57.722;12.012;2023-06-10T05:33:35;102156.22;;;17.23;40.99
19600;BME280;9947;57.722;12.012;2023-06-10T05:36:02;102152.00;;;17.30;41.97
19600;BME280;9947;57.722;12.012;2023-06-10T05:38:31;102160.53;;;16.58;42.53
19600;BME280;9947;57.722;12.012;2023-06-10T05:40:59;102159.38;;;17.62;40.37
19600;BME280;9947;57.722;12.012;2023-06-10T05:43:30;102160.56;;;17.25;40.67
19600;BME280;9947;57.722;12.012;2023-06-10T05:45:57;102159.91;;;17.99;39.54
19600;BME280;9947;57.722;12.012;2023-06-10T05:48:26;102156.03;;;18.43;38.88
19600;BME280;9947;57.722;12.012;2023-06-10T05:50:54;102161.91;;;18.17;39.46
19600;BME280;9947;57.722;12.012;2023-06-10T05:53:21;102160.88;;;17.54;40.07
19600;BME280;9947;57.722;12.012;2023-06-10T05:55:50;102164.19;;;18.33;39.18
19600;BME280;9947;57.722;12.012;2023-06-10T05:58:21;102159.44;;;17.17;41.11
19600;BME280;9947;57.722;12.012;2023-06-10T06:00:53;102162.69;;;17.00;42.31
19600;BME280;9947;57.722;12.012;2023-06-10T06:03:22;102158.72;;;17.04;42.59
19600;BME280;9947;57.722;12.012;2023-06-10T06:05:53;102162.31;;;17.15;42.94
19600;BME280;9947;57.722;12.012;2023-06-10T06:08:22;102170.47;;;17.92;41.45
19600;BME280;9947;57.722;12.012;2023-06-10T06:10:52;102166.03;;;18.12;41.79
19600;BME280;9947;57.722;12.012;2023-06-10T06:13:28;102174.75;;;18.38;40.88
19600;BME280;9947;57.722;12.012;2023-06-10T06:15:56;102176.78;;;18.04;41.47
19600;BME280;9947;57.722;12.012;2023-06-10T06:18:23;102175.03;;;17.60;42.64
19600;BME280;9947;57.722;12.012;2023-06-10T06:20:51;102174.22;;;17.37;43.14
19600;BME280;9947;57.722;12.012;2023-06-10T06:23:19;102172.25;;;16.83;44.17
19600;BME280;9947;57.722;12.012;2023-06-10T06:25:48;102174.28;;;16.57;45.97
19600;BME280;9947;57.722;12.012;2023-06-10T06:28:17;102166.31;;;17.00;44.72
19600;BME280;9947;57.722;12.012;2023-06-10T06:30:48;102174.28;;;16.46;46.44
19600;BME280;9947;57.722;12.012;2023-06-10T06:33:15;102175.34;;;16.32;46.01
19600;BME280;9947;57.722;12.012;2023-06-10T06:35:43;102176.13;;;16.91;44.77
19600;BME280;9947;57.722;12.012;2023-06-10T06:38:14;102173.66;;;17.76;44.60
19600;BME280;9947;57.722;12.012;2023-06-10T06:40:46;102172.25;;;17.27;45.39
19600;BME280;9947;57.722;12.012;2023-06-10T06:43:13;102183.34;;;17.69;44.65
19600;BME280;9947;57.722;12.012;2023-06-10T06:45:42;102176.41;;;17.76;44.04
19600;BME280;9947;57.722;12.012;2023-06-10T06:48:14;102176.00;;;17.81;43.46
19600;BME280;9947;57.722;12.012;2023-06-10T06:50:43;102176.00;;;18.13;43.18
19600;BME280;9947;57.722;12.012;2023-06-10T06:53:13;102174.47;;;18.41;43.27
19600;BME280;9947;57.722;12.012;2023-06-10T06:55:40;102179.72;;;18.12;43.74
19600;BME280;9947;57.722;12.012;2023-06-10T06:58:09;102176.25;;;17.67;44.38
19600;BME280;9947;57.722;12.012;2023-06-10T07:00:40;102180.94;;;18.19;43.90
19600;BME280;9947;57.722;12.012;2023-06-10T07:03:09;102180.19;;;18.17;42.80
19600;BME280;9947;57.722;12.012;2023-06-10T07:05:41;102174.72;;;18.17;43.18
19600;BME280;9947;57.722;12.012;2023-06-10T07:08:08;102178.91;;;18.21;43.48
19600;BME280;9947;57.722;12.012;2023-06-10T07:10:38;102166.59;;;18.27;42.67
19600;BME280;9947;57.722;12.012;2023-06-10T07:13:05;102170.72;;;18.00;42.96
19600;BME280;9947;57.722;12.012;2023-06-10T07:15:36;102175.63;;;17.20;44.16
19600;BME280;9947;57.722;12.012;2023-06-10T07:18:05;102171.59;;;17.46;43.63
19600;BME280;9947;57.722;12.012;2023-06-10T07:20:33;102168.75;;;17.48;45.09
19600;BME280;9947;57.722;12.012;2023-06-10T07:23:07;102178.56;;;17.28;44.38
19600;BME280;9947;57.722;12.012;2023-06-10T07:25:37;102173.47;;;16.90;44.55
19600;BME280;9947;57.722;12.012;2023-06-10T07:28:13;102184.56;;;17.00;45.12
19600;BME280;9947;57.722;12.012;2023-06-10T07:30:40;102184.44;;;17.01;43.71
19600;BME280;9947;57.722;12.012;2023-06-10T07:33:10;102186.28;;;17.45;44.12
19600;BME280;9947;57.722;12.012;2023-06-10T07:35:38;102182.97;;;17.63;42.85
19600;BME280;9947;57.722;12.012;2023-06-10T07:38:08;102183.34;;;17.69;42.14
19600;BME280;9947;57.722;12.012;2023-06-10T07:40:37;102190.47;;;17.72;42.90
19600;BME280;9947;57.722;12.012;2023-06-10T07:43:06;102181.72;;;17.67;43.61
19600;BME280;9947;57.722;12.012;2023-06-10T07:45:34;102187.03;;;17.91;42.75
19600;BME280;9947;57.722;12.012;2023-06-10T07:48:02;102181.47;;;18.13;41.27
19600;BME280;9947;57.722;12.012;2023-06-10T07:50:35;102182.06;;;17.84;41.38
19600;BME280;9947;57.722;12.012;2023-06-10T07:53:02;102173.72;;;18.39;41.66
19600;BME280;9947;57.722;12.012;2023-06-10T07:55:31;102181.25;;;18.05;39.91
19600;BME280;9947;57.722;12.012;2023-06-10T07:58:05;102176.34;;;17.87;39.95
19600;BME280;9947;57.722;12.012;2023-06-10T08:00:33;102180.56;;;18.24;39.34
19600;BME280;9947;57.722;12.012;2023-06-10T08:03:04;102165.50;;;18.18;39.90
19600;BME280;9947;57.722;12.012;2023-06-10T08:05:32;102172.59;;;18.21;39.63
19600;BME280;9947;57.722;12.012;2023-06-10T08:07:59;102171.72;;;18.20;39.11
19600;BME280;9947;57.722;12.012;2023-06-10T08:10:35;102164.59;;;18.29;40.31
19600;BME280;9947;57.722;12.012;2023-06-10T08:13:05;102169.34;;;17.95;40.61
19600;BME280;9947;57.722;12.012;2023-06-10T08:15:35;102170.72;;;18.21;40.04
19600;BME280;9947;57.722;12.012;2023-06-10T08:18:09;102165.97;;;18.44;39.08
19600;BME280;9947;57.722;12.012;2023-06-10T08:20:55;102164.09;;;18.44;38.94
19600;BME280;9947;57.722;12.012;2023-06-10T08:23:25;102169.31;;;18.47;38.48
19600;BME280;9947;57.722;12.012;2023-06-10T08:25:56;102164.31;;;18.32;38.64
19600;BME280;9947;57.722;12.012;2023-06-10T08:28:23;102170.75;;;18.63;38.87
19600;BME280;9947;57.722;12.012;2023-06-10T08:30:51;102168.38;;;18.58;39.03
19600;BME280;9947;57.722;12.012;2023-06-10T08:33:20;102171.34;;;18.97;39.48
19600;BME280;9947;57.722;12.012;2023-06-10T08:35:49;102163.28;;;19.26;38.45
19600;BME280;9947;57.722;12.012;2023-06-10T08:38:16;102166.00;;;19.26;36.87
19600;BME280;9947;57.722;12.012;2023-06-10T08:40:50;102172.31;;;19.17;36.82
19600;BME280;9947;57.722;12.012;2023-06-10T08:43:37;102166.69;;;19.18;37.14
19600;BME280;9947;57.722;12.012;2023-06-10T08:46:10;102165.09;;;19.16;38.42
19600;BME280;9947;57.722;12.012;2023-06-10T08:48:43;102170.88;;;19.22;38.02
19600;BME280;9947;57.722;12.012;2023-06-10T08:51:11;102165.19;;;19.45;36.82
19600;BME280;9947;57.722;12.012;2023-06-10T08:53:46;102167.25;;;19.12;37.12
19600;BME280;9947;57.722;12.012;2023-06-10T08:56:17;102169.84;;;19.14;36.00
19600;BME280;9947;57.722;12.012;2023-06-10T08:58:47;102158.50;;;19.28;36.15
19600;BME280;9947;57.722;12.012;2023-06-10T09:01:14;102162.25;;;19.27;36.85
19600;BME280;9947;57.722;12.012;2023-06-10T09:03:44;102162.50;;;19.14;36.11
19600;BME280;9947;57.722;12.012;2023-06-10T09:06:15;102153.78;;;18.69;36.58
19600;BME280;9947;57.722;12.012;2023-06-10T09:08:50;102149.41;;;18.87;36.98
19600;BME280;9947;57.722;12.012;2023-06-10T09:11:20;102144.03;;;18.76;37.13
19600;BME280;9947;57.722;12.012;2023-06-10T09:13:55;102146.91;;;18.74;37.72
19600;BME280;9947;57.722;12.012;2023-06-10T09:16:23;102149.50;;;18.55;37.77
19600;BME280;9947;57.722;12.012;2023-06-10T09:18:52;102144.78;;;18.88;37.14
19600;BME280;9947;57.722;12.012;2023-06-10T09:21:24;102135.94;;;18.74;37.05
19600;BME280;9947;57.722;12.012;2023-06-10T09:23:54;102143.31;;;19.24;37.50
19600;BME280;9947;57.722;12.012;2023-06-10T09:26:27;102133.41;;;19.32;37.45
19600;BME280;9947;57.722;12.012;2023-06-10T09:29:07;102132.41;;;18.63;37.39
19600;BME280;9947;57.722;12.012;2023-06-10T09:31:38;102136.91;;;18.73;36.91
19600;BME280;9947;57.722;12.012;2023-06-10T09:34:16;102143.78;;;18.89;37.53
19600;BME280;9947;57.722;12.012;2023-06-10T09:36:47;102129.44;;;19.06;35.85
19600;BME280;9947;57.722;12.012;2023-06-10T09:39:21;102127.84;;;19.03;35.08
19600;BME280;9947;57.722;12.012;2023-06-10T09:41:51;102132.34;;;19.24;35.56
19600;BME280;9947;57.722;12.012;2023-06-10T09:44:24;102134.19;;;19.04;35.71
19600;BME280;9947;57.722;12.012;2023-06-10T09:46:52;102129.06;;;18.90;36.08
19600;BME280;9947;57.722;12.012;2023-06-10T09:49:37;102123.84;;;18.77;36.33
19600;BME280;9947;57.722;12.012;2023-06-10T09:52:10;102127.97;;;19.02;36.35
19600;BME280;9947;57.722;12.012;2023-06-10T09:54:45;102134.84;;;18.87;34.72
19600;BME280;9947;57.722;12.012;2023-06-10T09:57:17;102116.00;;;19.03;35.07
19600;BME280;9947;57.722;12.012;2023-06-10T09:59:52;102130.22;;;19.27;34.84
19600;BME280;9947;57.722;12.012;2023-06-10T10:02:21;102120.38;;;19.25;35.08
19600;BME280;9947;57.722;12.012;2023-06-10T10:04:51;102120.84;;;19.39;34.89
19600;BME280;9947;57.722;12.012;2023-06-10T10:07:42;102120.28;;;19.36;33.50
19600;BME280;9947;57.722;12.012;2023-06-10T10:10:13;102118.41;;;19.46;33.32
19600;BME280;9947;57.722;12.012;2023-06-10T10:13:07;102124.75;;;19.47;33.81
19600;BME280;9947;57.722;12.012;2023-06-10T10:15:37;102128.66;;;19.34;35.13
19600;BME280;9947;57.722;12.012;2023-06-10T10:18:11;102121.78;;;19.59;33.95
19600;BME280;9947;57.722;12.012;2023-06-10T10:20:50;102121.06;;;19.57;34.15
19600;BME280;9947;57.722;12.012;2023-06-10T10:23:26;102118.75;;;19.62;33.96
19600;BME280;9947;57.722;12.012;2023-06-10T10:26:04;102127.13;;;19.70;32.75
19600;BME280;9947;57.722;12.012;2023-06-10T10:28:41;102126.34;;;19.39;31.86
19600;BME280;9947;57.722;12.012;2023-06-10T10:31:30;102120.34;;;19.55;32.16
19600;BME280;9947;57.722;12.012;2023-06-10T10:34:24;102114.28;;;19.90;31.62
19600;BME280;9947;57.722;12.012;2023-06-10T10:36:54;102118.34;;;19.86;32.06
19600;BME280;9947;57.722;12.012;2023-06-10T10:39:26;102114.56;;;19.97;31.18
19600;BME280;9947;57.722;12.012;2023-06-10T10:42:00;102109.81;;;19.89;31.27
19600;BME280;9947;57.722;12.012;2023-06-10T10:44:37;102113.97;;;20.22;31.83
19600;BME280;9947;57.722;12.012;2023-06-10T10:47:10;102114.13;;;20.21;32.44
19600;BME280;9947;57.722;12.012;2023-06-10T10:49:43;102114.75;;;19.86;31.18
19600;BME280;9947;57.722;12.012;2023-06-10T10:52:16;102116.44;;;19.96;32.04
19600;BME280;9947;57.722;12.012;2023-06-10T10:54:49;102112.41;;;20.00;31.78
19600;BME280;9947;57.722;12.012;2023-06-10T10:57:18;102112.56;;;19.89;32.73
19600;BME280;9947;57.722;12.012;2023-06-10T11:00:15;102107.91;;;19.99;32.66
19600;BME280;9947;57.722;12.012;2023-06-10T11:02:58;102116.75;;;20.13;33.34
19600;BME280;9947;57.722;12.012;2023-06-10T11:05:37;102112.13;;;20.13;32.00
19600;BME280;9947;57.722;12.012;2023-06-10T11:08:08;102108.06;;;20.17;31.39
19600;BME280;9947;57.722;12.012;2023-06-10T11:10:37;102108.31;;;20.24;31.80
19600;BME280;9947;57.722;12.012;2023-06-10T11:13:06;102099.66;;;20.19;32.91
19600;BME280;9947;57.722;12.012;2023-06-10T11:15:42;102102.53;;;20.27;33.02
19600;BME280;9947;57.722;12.012;2023-06-10T11:18:13;102098.34;;;20.23;31.65
19600;BME280;9947;57.722;12.012;2023-06-10T11:20:58;102092.00;;;20.32;31.33
19600;BME280;9947;57.722;12.012;2023-06-10T11:23:42;102089.09;;;20.24;31.38
19600;BME280;9947;57.722;12.012;2023-06-10T11:26:11;102087.47;;;20.50;31.59
19600;BME280;9947;57.722;12.012;2023-06-10T11:28:38;102096.44;;;20.52;31.84
19600;BME280;9947;57.722;12.012;2023-06-10T11:31:09;102084.63;;;20.42;32.01
19600;BME280;9947;57.722;12.012;2023-06-10T11:33:55;102090.06;;;20.52;32.76
19600;BME280;9947;57.722;12.012;2023-06-10T11:36:23;102085.28;;;20.54;32.00
19600;BME280;9947;57.722;12.012;2023-06-10T11:38:56;102097.03;;;20.46;32.36
19600;BME280;9947;57.722;12.012;2023-06-10T11:41:24;102090.38;;;20.29;32.43
19600;BME280;9947;57.722;12.012;2023-06-10T11:43:54;102076.78;;;20.47;32.66
19600;BME280;9947;57.722;12.012;2023-06-10T11:46:24;102091.66;;;20.54;32.86
19600;BME280;9947;57.722;12.012;2023-06-10T11:48:55;102071.28;;;20.47;32.67
19600;BME280;9947;57.722;12.012;2023-06-10T11:51:25;102076.16;;;20.63;32.74
19600;BME280;9947;57.722;12.012;2023-06-10T11:53:53;102074.44;;;20.62;31.76
19600;BME280;9947;57.722;12.012;2023-06-10T11:56:26;102073.91;;;20.49;32.08
19600;BME280;9947;57.722;12.012;2023-06-10T11:58:55;102072.91;;;20.40;32.51
19600;BME280;9947;57.722;12.012;2023-06-10T12:01:24;102063.78;;;20.49;33.20
19600;BME280;9947;57.722;12.012;2023-06-10T12:04:01;102058.50;;;20.66;32.05
19600;BME280;9947;57.722;12.012;2023-06-10T12:06:38;102063.81;;;21.04;32.83
19600;BME280;9947;57.722;12.012;2023-06-10T12:09:12;102056.41;;;20.87;32.38
19600;BME280;9947;57.722;12.012;2023-06-10T12:11:43;102057.59;;;21.02;32.51
19600;BME280;9947;57.722;12.012;2023-06-10T12:14:12;102055.22;;;21.07;31.84
19600;BME280;9947;57.722;12.012;2023-06-10T12:16:47;102047.81;;;21.17;31.93
19600;BME280;9947;57.722;12.012;2023-06-10T12:19:16;102052.63;;;20.88;31.61
19600;BME280;9947;57.722;12.012;2023-06-10T12:21:44;102051.75;;;20.87;31.53
19600;BME280;9947;57.722;12.012;2023-06-10T12:24:11;102054.84;;;21.02;32.11
19600;BME280;9947;57.722;12.012;2023-06-10T12:26:41;102049.41;;;20.92;31.23
19600;BME280;9947;57.722;12.012;2023-06-10T12:29:22;102045.50;;;20.95;31.80
19600;BME280;9947;57.722;12.012;2023-06-10T12:31:57;102036.94;;;20.98;31.43
19600;BME280;9947;57.722;12.012;2023-06-10T12:34:35;102048.69;;;21.18;30.65
19600;BME280;9947;57.722;12.012;2023-06-10T12:37:09;102040.97;;;21.21;31.73
19600;BME280;9947;57.722;12.012;2023-06-10T12:39:39;102030.63;;;21.33;31.47
19600;BME280;9947;57.722;12.012;2023-06-10T12:42:08;102041.72;;;21.59;31.79
19600;BME280;9947;57.722;12.012;2023-06-10T12:44:39;102051.63;;;21.52;31.65
19600;BME280;9947;57.722;12.012;2023-06-10T12:47:10;102048.41;;;21.39;32.05
19600;BME280;9947;57.722;12.012;2023-06-10T12:49:42;102043.41;;;21.34;31.95
19600;BME280;9947;57.722;12.012;2023-06-10T12:52:11;102044.69;;;21.30;30.81
19600;BME280;9947;57.722;12.012;2023-06-10T12:54:38;102030.97;;;21.48;31.78
19600;BME280;9947;57.722;12.012;2023-06-10T12:57:10;102037.72;;;21.53;31.32
19600;BME280;9947;57.722;12.012;2023-06-10T12:59:57;102031.56;;;21.60;30.56
19600;BME280;9947;57.722;12.012;2023-06-10T13:02:37;102029.47;;;21.71;28.83
19600;BME280;9947;57.722;12.012;2023-06-10T13:05:08;102029.44;;;21.89;29.28
19600;BME280;9947;57.722;12.012;2023-06-10T13:07:36;102034.31;;;21.95;27.93
19600;BME280;9947;57.722;12.012;2023-06-10T13:10:03;102021.88;;;21.91;27.63